Time;durP1;ratioP1;P1;durP2;ratioP2;P2;SDS_P1;SDS_P2;PMS_P1;PMS_P2;Temp;Humidity;BMP_temperature;BMP_pressure;BME280_temperature;BME280_humidity;BME280_pressure;Samples;Min_cycle;Max_cycle;Signal;HPM_P1;HPM_P2
2021/09/09 00:05:21;;;;;;;21.17;11.70;;;;;;;16.72;100.00;99566.44;4286252;82;28508;-81
2021/09/09 00:11:24;;;;;;;20.65;12.37;;;;;;;16.77;100.00;99561.59;4285353;82;28479;-81
2021/09/09 00:17:26;;;;;;;20.20;11.48;;;;;;;16.58;100.00;99563.85;4257792;82;28475;-81
2021/09/09 00:23:28;;;;;;;21.48;12.63;;;;;;;16.49;100.00;99559.45;4240459;82;28533;-81
2021/09/09 00:29:31;;;;;;;21.02;11.83;;;;;;;16.35;100.00;99561.75;4216720;83;28521;-81
2021/09/09 00:35:33;;;;;;;21.40;11.57;;;;;;;16.38;100.00;99560.43;4243918;83;28554;-81
2021/09/09 00:41:34;;;;;;;22.65;12.95;;;;;;;16.48;100.00;99563.77;4257200;84;28483;-82
2021/09/09 00:47:35;;;;;;;22.87;12.55;;;;;;;16.31;100.00;99562.00;4249252;82;28456;-82
2021/09/09 00:53:38;;;;;;;22.93;13.10;;;;;;;15.99;100.00;99567.63;4262751;82;28566;-81
2021/09/09 00:59:40;;;;;;;19.55;11.93;;;;;;;16.22;100.00;99567.05;4262154;82;28541;-81
2021/09/09 01:05:41;;;;;;;22.15;12.15;;;;;;;16.08;100.00;99565.82;4265128;82;28493;-81
2021/09/09 01:11:42;;;;;;;20.37;11.80;;;;;;;16.19;100.00;99560.78;4242809;82;28687;-82
2021/09/09 01:17:44;;;;;;;20.20;11.95;;;;;;;15.96;100.00;99559.17;4263465;82;28482;-82
2021/09/09 01:23:48;;;;;;;20.30;11.75;;;;;;;15.92;100.00;99562.92;4259841;81;28554;-83
2021/09/09 01:29:50;;;;;;;21.17;12.00;;;;;;;15.92;100.00;99570.25;4248794;83;28484;-81
2021/09/09 01:35:51;;;;;;;21.20;12.15;;;;;;;15.94;100.00;99568.11;4254142;82;28494;-81
2021/09/09 01:41:55;;;;;;;19.87;11.93;;;;;;;15.63;100.00;99573.13;4259014;82;28448;-81
2021/09/09 01:47:56;;;;;;;19.42;11.05;;;;;;;15.55;100.00;99571.68;4277682;82;28482;-82
2021/09/09 01:53:58;;;;;;;18.90;10.85;;;;;;;15.36;100.00;99573.32;4235876;82;28530;-82
2021/09/09 02:00:04;;;;;;;17.45;10.63;;;;;;;15.37;100.00;99566.83;4288659;82;28448;-82
2021/09/09 02:06:04;;;;;;;18.75;10.95;;;;;;;15.54;100.00;99572.75;4208574;83;28494;-82
2021/09/09 02:12:06;;;;;;;16.05;10.32;;;;;;;15.58;100.00;99568.45;4236120;82;28642;-84
2021/09/09 02:18:08;;;;;;;15.72;9.03;;;;;;;15.28;100.00;99575.09;4246303;82;28522;-82
2021/09/09 02:24:09;;;;;;;15.58;8.98;;;;;;;15.18;100.00;99569.01;4210739;82;28540;-81
2021/09/09 02:30:11;;;;;;;17.45;9.65;;;;;;;15.27;100.00;99565.33;4245895;83;28459;-80
2021/09/09 02:36:13;;;;;;;15.88;10.45;;;;;;;15.41;100.00;99559.02;4176827;85;28538;-81
2021/09/09 02:42:15;;;;;;;16.02;9.65;;;;;;;15.27;100.00;99554.50;4140207;86;28890;-82
2021/09/09 02:48:16;;;;;;;13.93;8.73;;;;;;;15.20;100.00;99550.62;4140132;86;28525;-81
2021/09/09 02:54:18;;;;;;;17.40;9.00;;;;;;;15.08;100.00;99552.06;4140242;86;28467;-80
2021/09/09 03:00:19;;;;;;;14.05;8.30;;;;;;;15.24;100.00;99550.94;4140473;86;28514;-81
2021/09/09 03:06:20;;;;;;;14.83;9.13;;;;;;;14.93;100.00;99544.53;4141348;86;28461;-81
2021/09/09 03:12:22;;;;;;;13.98;8.68;;;;;;;14.89;100.00;99544.75;4141286;86;28477;-80
2021/09/09 03:18:23;;;;;;;14.98;8.70;;;;;;;14.81;100.00;99546.51;4140775;86;28537;-81
2021/09/09 03:24:24;;;;;;;12.43;8.33;;;;;;;15.11;100.00;99558.87;4121139;86;28502;-81
2021/09/09 03:30:26;;;;;;;15.20;8.78;;;;;;;14.92;100.00;99557.78;4117416;86;28442;-81
2021/09/09 03:36:27;;;;;;;13.18;8.60;;;;;;;14.60;100.00;99558.33;4073913;87;28478;-81
2021/09/09 03:42:29;;;;;;;14.03;7.97;;;;;;;14.75;100.00;99556.44;4133345;86;28515;-80
2021/09/09 03:48:30;;;;;;;15.58;8.35;;;;;;;14.74;100.00;99552.92;4159493;86;28475;-81
2021/09/09 03:54:32;;;;;;;13.05;7.83;;;;;;;14.73;100.00;99554.52;4159823;86;28478;-81
2021/09/09 04:00:33;;;;;;;13.98;8.03;;;;;;;14.70;100.00;99549.57;4159160;86;28533;-81
2021/09/09 04:06:35;;;;;;;11.73;7.45;;;;;;;14.46;100.00;99545.64;4159702;86;28453;-81
2021/09/09 04:12:36;;;;;;;12.45;8.03;;;;;;;14.60;100.00;99540.73;4159299;86;28521;-81
2021/09/09 04:18:38;;;;;;;13.65;7.33;;;;;;;14.59;100.00;99549.92;4159242;86;28451;-81
2021/09/09 04:24:40;;;;;;;14.70;8.20;;;;;;;14.81;100.00;99548.70;4208927;84;28558;-81
2021/09/09 04:30:42;;;;;;;12.98;7.83;;;;;;;14.69;100.00;99551.45;4232168;83;28494;-81
2021/09/09 04:36:43;;;;;;;14.40;8.60;;;;;;;14.69;100.00;99554.15;4232407;84;28558;-81
2021/09/09 04:42:44;;;;;;;12.28;7.55;;;;;;;14.54;100.00;99564.73;4232275;84;28464;-80
2021/09/09 04:48:46;;;;;;;12.47;7.75;;;;;;;14.62;100.00;99560.25;4192358;84;28518;-80
2021/09/09 04:54:47;;;;;;;13.83;7.22;;;;;;;14.69;100.00;99559.56;4162159;86;28506;-80
2021/09/09 05:00:48;;;;;;;13.10;7.60;;;;;;;14.72;100.00;99561.80;4153663;85;28501;-80
2021/09/09 05:06:50;;;;;;;13.53;8.38;;;;;;;14.88;100.00;99563.41;4094405;85;28556;-80
2021/09/09 05:12:51;;;;;;;14.68;8.60;;;;;;;15.07;100.00;99561.80;4093858;86;28497;-80
2021/09/09 05:18:52;;;;;;;15.28;8.55;;;;;;;15.16;100.00;99555.70;4094667;86;28457;-80
2021/09/09 05:24:53;;;;;;;15.03;8.43;;;;;;;15.43;100.00;99552.81;4131854;86;28534;-80
2021/09/09 05:30:55;;;;;;;17.57;7.85;;;;;;;15.56;100.00;99551.63;4302745;81;28440;-80
2021/09/09 05:36:56;;;;;;;14.98;8.28;;;;;;;15.82;100.00;99546.51;4381989;81;28892;-82
2021/09/09 05:42:57;;;;;;;18.95;9.70;;;;;;;16.06;100.00;99544.92;4381587;81;28472;-81
2021/09/09 05:48:59;;;;;;;18.42;10.20;;;;;;;16.17;100.00;99542.59;4381193;81;28515;-81
2021/09/09 05:55:01;;;;;;;19.87;10.65;;;;;;;16.25;100.00;99537.23;4381904;80;28451;-82
2021/09/09 06:01:02;;;;;;;19.23;10.05;;;;;;;16.49;100.00;99539.61;4381026;81;28488;-81
2021/09/09 06:07:03;;;;;;;22.07;10.23;;;;;;;16.67;100.00;99530.28;4381508;81;28530;-82
2021/09/09 06:13:05;;;;;;;24.15;12.00;;;;;;;16.93;100.00;99533.17;4381163;81;28508;-82
2021/09/09 06:19:06;;;;;;;23.32;12.15;;;;;;;16.96;100.00;99529.40;4380294;81;28463;-84
2021/09/09 06:25:10;;;;;;;24.12;11.65;;;;;;;17.20;100.00;99518.71;4277754;83;28509;-85
2021/09/09 06:31:11;;;;;;;23.40;12.63;;;;;;;17.44;100.00;99520.99;4217145;84;28452;-82
2021/09/09 06:37:12;;;;;;;28.07;12.58;;;;;;;17.63;100.00;99523.52;4214742;84;28508;-78
2021/09/09 06:43:14;;;;;;;24.32;11.05;;;;;;;17.89;100.00;99522.80;4214134;84;28505;-86
2021/09/09 06:49:15;;;;;;;24.55;11.73;;;;;;;18.05;100.00;99515.52;4214537;84;28493;-90
2021/09/09 06:55:19;;;;;;;19.05;10.70;;;;;;;18.21;100.00;99518.52;4115176;86;28461;-87
2021/09/09 07:01:21;;;;;;;22.67;10.98;;;;;;;18.51;100.00;99516.91;4077293;87;28517;-91
2021/09/09 07:07:22;;;;;;;18.27;9.30;;;;;;;18.62;100.00;99512.28;4128950;84;28445;-80
2021/09/09 07:13:23;;;;;;;20.62;9.45;;;;;;;18.92;100.00;99508.42;4138215;86;28500;-79
2021/09/09 07:19:25;;;;;;;16.07;8.35;;;;;;;19.08;100.00;99514.69;4135338;86;28446;-80
2021/09/09 07:25:26;;;;;;;14.75;7.58;;;;;;;19.44;100.00;99510.50;4134739;84;28485;-80
2021/09/09 07:31:27;;;;;;;14.80;7.20;;;;;;;19.68;100.00;99513.11;4134364;86;28512;-80
2021/09/09 07:37:28;;;;;;;9.65;6.00;;;;;;;19.90;100.00;99514.09;4132820;86;28483;-80
2021/09/09 07:43:30;;;;;;;10.50;5.40;;;;;;;20.07;94.11;99511.02;4133037;86;28496;-80
2021/09/09 07:49:32;;;;;;;7.85;4.70;;;;;;;20.20;94.37;99519.13;4132847;86;28483;-81
2021/09/09 07:55:33;;;;;;;8.23;5.05;;;;;;;20.53;91.09;99518.05;4145198;84;28481;-80
2021/09/09 08:01:34;;;;;;;11.00;5.35;;;;;;;20.92;87.20;99514.99;4207604;83;28492;-81
2021/09/09 08:07:42;;;;;;;8.10;5.10;;;;;;;20.96;86.57;99511.96;4128233;85;28434;-81
2021/09/09 08:13:43;;;;;;;7.95;5.25;;;;;;;21.18;84.20;99512.00;4226642;83;28537;-81
2021/09/09 08:19:44;;;;;;;7.12;4.90;;;;;;;21.41;76.09;99504.91;4281440;82;28533;-80
2021/09/09 08:25:46;;;;;;;7.70;5.10;;;;;;;21.63;73.33;99502.71;4272249;81;28583;-80
2021/09/09 08:31:47;;;;;;;7.33;4.87;;;;;;;21.62;72.70;99501.09;4261064;84;28454;-81
2021/09/09 08:37:49;;;;;;;8.00;5.05;;;;;;;21.68;71.69;99494.48;4299852;82;28519;-80
2021/09/09 08:43:50;;;;;;;7.55;4.58;;;;;;;22.01;68.34;99488.52;4272180;82;28477;-80
2021/09/09 08:49:52;;;;;;;9.65;5.10;;;;;;;22.17;70.94;99492.40;4244409;82;28523;-81
2021/09/09 08:55:53;;;;;;;8.25;4.83;;;;;;;22.21;66.19;99492.05;4278544;82;28472;-81
2021/09/09 09:02:10;;;;;;;6.47;4.47;;;;;;;22.40;62.01;99482.45;4257399;84;28484;-81
2021/09/09 09:08:11;;;;;;;;;;;;;;;22.45;62.68;99480.73;4262610;84;28504;-80
2021/09/09 09:14:18;;;;;;;7.03;4.17;;;;;;;22.87;58.87;99480.28;4256697;84;20588;-80
2021/09/09 09:20:19;;;;;;;7.00;4.37;;;;;;;22.96;59.97;99472.98;4259464;84;28498;-81
2021/09/09 09:26:21;;;;;;;7.92;4.47;;;;;;;22.95;59.31;99471.91;4259728;83;28514;-81
2021/09/09 09:32:22;;;;;;;8.15;5.10;;;;;;;23.00;59.88;99465.52;4260425;84;28468;-81
2021/09/09 09:38:23;;;;;;;7.00;5.10;;;;;;;23.17;59.48;99464.36;4259598;84;28534;-82
2021/09/09 09:44:47;;;;;;;6.67;4.20;;;;;;;23.23;59.19;99462.31;4260041;84;28542;-82
2021/09/09 09:50:46;;;;;;;8.05;4.83;;;;;;;23.71;57.71;99450.64;4260490;83;28527;-80
2021/09/09 09:56:49;;;;;;;7.20;4.30;;;;;;;23.79;53.82;99455.38;4260532;84;28498;-79
2021/09/09 10:02:54;;;;;;;8.43;4.30;;;;;;;23.99;54.50;99454.11;4260075;84;28502;-81
2021/09/09 10:08:56;;;;;;;7.07;4.77;;;;;;;24.11;54.96;99444.53;4260947;84;28494;-81
2021/09/09 10:15:05;;;;;;;8.20;4.87;;;;;;;24.22;52.36;99441.77;4260295;84;28562;-79
2021/09/09 10:21:07;;;;;;;6.05;4.03;;;;;;;24.37;48.68;99429.59;4260140;84;28466;-81
2021/09/09 10:27:32;;;;;;;7.53;4.62;;;;;;;24.34;51.03;99424.73;4250360;82;28580;-80
2021/09/09 10:33:32;;;;;;;8.05;4.70;;;;;;;24.41;52.03;99429.77;4248968;83;28461;-81
2021/09/09 10:39:42;;;;;;;8.10;4.67;;;;;;;24.17;48.67;99416.62;4157404;86;28543;-81
2021/09/09 10:45:45;;;;;;;6.90;4.47;;;;;;;24.31;50.61;99417.09;4155877;86;28471;-81
2021/09/09 10:52:11;;;;;;;6.12;4.17;;;;;;;24.39;47.26;99412.22;4157379;86;28544;-81
2021/09/09 10:58:24;;;;;;;6.83;4.40;;;;;;;24.63;50.57;99411.86;4158395;86;28508;-81
2021/09/09 11:04:30;;;;;;;6.78;4.53;;;;;;;24.79;48.94;99397.73;4157298;86;28522;-81
2021/09/09 11:10:39;;;;;;;7.83;4.35;;;;;;;24.89;48.54;99387.82;4158024;86;28487;-79
2021/09/09 11:16:41;;;;;;;8.23;4.20;;;;;;;24.93;47.42;99383.84;4158174;86;28480;-81
2021/09/09 11:22:43;;;;;;;6.58;4.45;;;;;;;25.00;47.12;99377.90;4157536;85;28487;-80
2021/09/09 11:28:47;;;;;;;6.12;4.03;;;;;;;24.91;47.60;99376.48;4236717;84;28553;-80
2021/09/09 11:34:48;;;;;;;6.85;3.98;;;;;;;24.96;47.41;99378.28;4236016;84;28502;-81
2021/09/09 11:41:05;;;;;;;7.53;3.70;;;;;;;25.06;43.73;99371.09;4236995;84;28483;-81
2021/09/09 11:47:18;;;;;;;4.90;3.40;;;;;;;25.02;45.20;99366.80;4237017;84;28475;-82
2021/09/09 11:53:25;;;;;;;5.33;3.33;;;;;;;25.19;43.94;99363.84;4237087;84;28489;-80
2021/09/09 11:59:26;;;;;;;6.35;3.55;;;;;;;25.27;43.00;99359.48;4237036;84;28509;-81
2021/09/09 12:05:27;;;;;;;6.30;3.60;;;;;;;25.26;42.45;99355.94;4237183;84;28557;-79
2021/09/09 12:11:29;;;;;;;6.50;3.87;;;;;;;25.37;42.66;99355.62;4236958;84;28492;-80
2021/09/09 12:17:31;;;;;;;5.20;3.40;;;;;;;25.42;42.31;99352.69;4236838;84;28521;-80
2021/09/09 12:23:32;;;;;;;6.47;3.85;;;;;;;25.43;42.40;99336.42;4242118;82;28494;-81
2021/09/09 12:29:37;;;;;;;5.97;3.33;;;;;;;25.41;42.64;99345.57;4285447;83;28945;-81
2021/09/09 12:35:39;;;;;;;4.55;3.15;;;;;;;25.48;41.45;99330.19;4285698;83;28495;-80
2021/09/09 12:41:40;;;;;;;4.33;3.50;;;;;;;25.60;43.31;99325.44;4255171;83;28491;-80
2021/09/09 12:47:42;;;;;;;5.80;3.65;;;;;;;25.63;41.49;99316.28;4285689;83;28501;-81
2021/09/09 12:53:43;;;;;;;7.78;4.03;;;;;;;25.59;43.24;99318.88;4285254;83;28514;-81
2021/09/09 12:59:45;;;;;;;5.70;3.75;;;;;;;25.68;43.32;99299.61;4285215;83;28566;-81
2021/09/09 13:05:46;;;;;;;6.33;3.92;;;;;;;25.68;42.25;99294.90;4286132;83;28455;-80
2021/09/09 13:11:47;;;;;;;6.92;3.95;;;;;;;25.91;42.77;99300.77;4286389;83;28483;-80
2021/09/09 13:17:49;;;;;;;6.42;3.85;;;;;;;26.12;42.30;99299.48;4286401;83;28466;-81
2021/09/09 13:23:51;;;;;;;5.75;3.72;;;;;;;26.17;42.95;99289.09;4254726;83;28922;-81
2021/09/09 13:29:52;;;;;;;7.83;4.10;;;;;;;26.18;42.86;99283.02;4286059;82;28472;-81
2021/09/09 13:35:53;;;;;;;6.15;4.05;;;;;;;26.13;42.89;99281.25;4286184;83;28483;-81
2021/09/09 13:41:55;;;;;;;6.60;4.35;;;;;;;26.23;42.54;99272.41;4285989;83;28537;-80
2021/09/09 13:47:57;;;;;;;5.85;3.75;;;;;;;26.15;42.44;99264.40;4285583;83;28512;-81
2021/09/09 13:53:58;;;;;;;6.25;4.30;;;;;;;26.24;43.57;99254.73;4285599;83;28452;-80
2021/09/09 13:59:59;;;;;;;5.53;3.98;;;;;;;26.24;43.58;99258.88;4284177;83;28518;-80
2021/09/09 14:06:02;;;;;;;7.53;4.40;;;;;;;26.14;44.63;99248.42;4249232;83;28557;-81
2021/09/09 14:12:04;;;;;;;8.03;4.70;;;;;;;26.23;43.93;99254.50;4314988;82;28547;-84
2021/09/09 14:18:06;;;;;;;6.37;4.12;;;;;;;26.22;44.02;99250.92;4359618;82;28514;-80
2021/09/09 14:24:07;;;;;;;7.33;3.92;;;;;;;26.23;44.86;99247.62;4295310;82;28445;-80
2021/09/09 14:30:11;;;;;;;6.15;4.80;;;;;;;26.21;45.35;99245.18;4242059;82;28510;-86
2021/09/09 14:36:12;;;;;;;6.42;4.72;;;;;;;25.90;44.89;99243.49;4231786;82;28494;-84
2021/09/09 14:42:14;;;;;;;6.53;4.85;;;;;;;25.98;47.15;99237.70;4266359;82;28558;-82
2021/09/09 14:48:15;;;;;;;7.62;4.95;;;;;;;26.00;47.25;99234.87;4264878;82;28465;-82
2021/09/09 14:54:16;;;;;;;6.37;4.58;;;;;;;25.97;47.23;99227.27;4200688;84;28459;-82
2021/09/09 15:00:18;;;;;;;8.13;4.65;;;;;;;26.00;47.43;99231.33;4255352;83;28481;-82
2021/09/09 15:06:20;;;;;;;6.42;4.40;;;;;;;25.97;48.62;99219.57;4216705;84;28468;-80
2021/09/09 15:12:22;;;;;;;10.20;5.22;;;;;;;25.97;48.60;99214.06;4274905;82;28537;-84
2021/09/09 15:18:23;;;;;;;8.08;5.00;;;;;;;25.93;47.84;99215.31;4260615;82;28519;-84
2021/09/09 15:24:25;;;;;;;6.95;5.30;;;;;;;25.87;49.33;99209.73;4264818;82;28561;-85
2021/09/09 15:30:26;;;;;;;6.75;5.05;;;;;;;25.82;49.03;99209.91;4231622;83;28482;-84
2021/09/09 15:36:31;;;;;;;7.42;5.50;;;;;;;25.92;50.27;99208.75;4185360;83;28501;-92
2021/09/09 15:42:31;;;;;;;7.17;5.28;;;;;;;25.74;50.70;99207.43;4188750;83;28506;-88
2021/09/09 15:48:33;;;;;;;9.45;5.90;;;;;;;25.70;51.82;99195.47;4216318;83;28485;-91
2021/09/09 15:54:34;;;;;;;8.35;5.62;;;;;;;25.59;53.11;99195.83;4203742;83;28464;-88
2021/09/09 16:00:36;;;;;;;8.98;5.58;;;;;;;25.45;54.64;99193.23;4178264;83;28863;-83
2021/09/09 16:06:37;;;;;;;8.05;5.95;;;;;;;25.35;54.32;99188.08;4195175;83;28482;-81
2021/09/09 16:12:39;;;;;;;9.80;6.67;;;;;;;25.31;55.18;99187.13;4203695;82;28551;-80
2021/09/09 16:18:41;;;;;;;10.53;6.50;;;;;;;25.17;55.99;99179.05;4208505;83;28496;-82
2021/09/09 16:24:42;;;;;;;9.33;6.25;;;;;;;25.06;56.24;99179.94;4204242;82;28472;-80
2021/09/09 16:30:45;;;;;;;10.78;6.33;;;;;;;24.94;57.45;99177.87;4244628;82;28529;-80
2021/09/09 16:36:46;;;;;;;9.50;6.53;;;;;;;24.91;58.79;99173.81;4225463;82;28509;-82
2021/09/09 16:42:48;;;;;;;11.83;7.20;;;;;;;24.77;58.94;99173.13;4257957;82;28512;-82
2021/09/09 16:48:51;;;;;;;8.83;6.58;;;;;;;24.63;60.14;99171.35;4241024;82;28521;-82
2021/09/09 16:54:54;;;;;;;9.18;5.95;;;;;;;24.43;62.65;99167.85;4239006;82;28483;-81
2021/09/09 17:00:56;;;;;;;10.45;7.10;;;;;;;24.20;69.63;99155.62;4240197;82;28574;-82
2021/09/09 17:06:59;;;;;;;11.20;7.47;;;;;;;23.87;77.85;99162.27;4260882;82;28511;-82
2021/09/09 17:13:01;;;;;;;12.07;7.37;;;;;;;23.53;77.41;99162.37;4263075;82;28550;-82
2021/09/09 17:19:02;;;;;;;12.40;7.95;;;;;;;23.21;83.58;99161.52;4262395;82;28518;-80
2021/09/09 17:25:08;;;;;;;14.50;7.65;;;;;;;23.03;80.46;99167.45;4243917;82;28521;-84
2021/09/09 17:31:08;;;;;;;13.40;8.08;;;;;;;22.84;83.02;99171.96;4254215;82;28483;-85
2021/09/09 17:37:09;;;;;;;14.03;7.45;;;;;;;22.50;86.50;99179.34;4154088;84;28488;-80
2021/09/09 17:43:11;;;;;;;13.53;8.33;;;;;;;22.32;90.32;99185.15;4180933;84;28502;-81
2021/09/09 17:49:12;;;;;;;11.73;7.87;;;;;;;22.12;90.72;99180.34;4156728;84;28488;-84
2021/09/09 17:55:14;;;;;;;16.02;9.08;;;;;;;21.96;93.55;99182.03;4123163;84;28496;-81
2021/09/09 18:01:16;;;;;;;14.23;9.85;;;;;;;21.75;94.81;99188.44;4126346;86;28495;-81
2021/09/09 18:07:17;;;;;;;18.57;9.65;;;;;;;21.47;96.86;99188.92;4157785;85;28484;-82
2021/09/09 18:13:23;;;;;;;14.73;9.18;;;;;;;21.26;100.00;99180.53;4157732;86;28566;-82
2021/09/09 18:19:21;;;;;;;15.35;8.63;;;;;;;21.04;100.00;99194.81;4156405;86;28492;-81
2021/09/09 18:25:23;;;;;;;16.12;8.33;;;;;;;20.76;100.00;99191.91;4157443;83;28542;-80
2021/09/09 18:31:27;;;;;;;14.40;8.73;;;;;;;20.72;100.00;99196.35;4147277;85;28525;-78
2021/09/09 18:37:29;;;;;;;13.13;8.83;;;;;;;20.65;100.00;99194.53;4180927;84;28480;-82
2021/09/09 18:43:30;;;;;;;15.23;9.45;;;;;;;20.52;100.00;99205.66;4171896;83;28463;-86
2021/09/09 18:49:33;;;;;;;13.90;9.60;;;;;;;20.43;100.00;99212.30;4259515;82;28441;-82
2021/09/09 18:55:35;;;;;;;18.17;9.95;;;;;;;20.30;100.00;99206.98;4276685;82;28501;-82
2021/09/09 19:01:38;;;;;;;14.65;8.80;;;;;;;20.01;100.00;99211.42;4229772;82;28495;-82
2021/09/09 19:07:41;;;;;;;20.45;10.55;;;;;;;19.91;100.00;99211.50;4272653;82;28509;-83
2021/09/09 19:13:46;;;;;;;16.48;11.18;;;;;;;19.87;100.00;99218.08;4244210;82;28503;-80
2021/09/09 19:19:50;;;;;;;21.20;10.48;;;;;;;19.65;100.00;99222.11;4280384;82;28479;-80
2021/09/09 19:25:51;;;;;;;16.87;10.23;;;;;;;19.77;100.00;99222.28;4233811;82;28495;-81
2021/09/09 19:31:54;;;;;;;18.67;10.82;;;;;;;19.56;100.00;99227.12;4283703;83;28548;-81
2021/09/09 19:37:58;;;;;;;18.32;10.45;;;;;;;19.45;100.00;99229.11;4254440;82;28519;-82
2021/09/09 19:43:59;;;;;;;17.57;11.10;;;;;;;19.25;100.00;99223.29;4237542;82;28476;-81
2021/09/09 19:50:00;;;;;;;22.32;11.25;;;;;;;19.00;100.00;99237.31;4315880;82;28487;-80
2021/09/09 19:56:03;;;;;;;18.85;11.48;;;;;;;18.82;100.00;99236.89;4258055;84;28522;-81
2021/09/09 20:02:04;;;;;;;20.57;10.78;;;;;;;18.95;100.00;99238.98;4256351;84;28515;-83
2021/09/09 20:08:06;;;;;;;20.95;11.22;;;;;;;18.50;100.00;99242.23;4261019;82;28482;-81
2021/09/09 20:14:07;;;;;;;15.23;10.78;;;;;;;18.43;100.00;99244.42;4255085;82;28474;-81
2021/09/09 20:20:09;;;;;;;19.02;11.28;;;;;;;18.36;100.00;99250.17;4290656;82;28516;-80
2021/09/09 20:26:11;;;;;;;22.30;12.25;;;;;;;18.57;100.00;99249.53;4328866;82;28538;-82
2021/09/09 20:32:12;;;;;;;19.48;11.88;;;;;;;18.31;100.00;99252.37;4305015;81;28549;-81
2021/09/09 20:38:14;;;;;;;17.87;11.25;;;;;;;18.32;100.00;99258.08;4310072;81;28479;-82
2021/09/09 20:44:15;;;;;;;18.45;11.28;;;;;;;18.12;100.00;99256.23;4328979;80;28494;-80
2021/09/09 20:50:18;;;;;;;19.32;11.10;;;;;;;18.02;100.00;99270.63;4277384;82;28483;-81
2021/09/09 20:56:19;;;;;;;19.40;12.60;;;;;;;17.89;100.00;99278.01;4209153;84;28474;-83
2021/09/09 21:02:21;;;;;;;23.38;12.37;;;;;;;18.05;100.00;99276.91;4107964;84;28522;-82
2021/09/09 21:08:25;;;;;;;22.45;13.03;;;;;;;18.08;100.00;99270.11;4218762;83;28506;-84
2021/09/09 21:14:27;;;;;;;23.05;13.55;;;;;;;18.39;100.00;99272.75;4121044;85;28490;-83
2021/09/09 21:20:28;;;;;;;24.52;13.95;;;;;;;18.10;100.00;99271.47;4120408;85;28569;-82
2021/09/09 21:26:30;;;;;;;21.68;12.60;;;;;;;17.93;100.00;99283.98;4153232;84;28499;-83
2021/09/09 21:32:31;;;;;;;21.95;11.88;;;;;;;18.03;100.00;99285.06;4122766;85;28439;-82
2021/09/09 21:38:33;;;;;;;23.85;13.85;;;;;;;17.79;100.00;99293.24;4234198;83;28507;-85
2021/09/09 21:44:34;;;;;;;22.20;13.62;;;;;;;17.98;100.00;99294.05;4235750;84;28513;-83
2021/09/09 21:50:35;;;;;;;24.65;12.00;;;;;;;17.78;100.00;99298.94;4237377;84;28495;-84
2021/09/09 21:56:37;;;;;;;23.02;13.32;;;;;;;17.55;100.00;99298.41;4235912;84;28495;-83
2021/09/09 22:02:38;;;;;;;24.07;13.18;;;;;;;17.26;100.00;99299.73;4235488;84;28491;-82
2021/09/09 22:08:40;;;;;;;20.02;12.90;;;;;;;17.34;100.00;99306.53;4235224;84;28505;-83
2021/09/09 22:14:42;;;;;;;21.55;12.25;;;;;;;17.50;100.00;99304.66;4233122;84;28483;-83
2021/09/09 22:20:44;;;;;;;22.20;12.18;;;;;;;17.65;100.00;99308.45;4232185;84;28536;-84
2021/09/09 22:26:48;;;;;;;21.07;13.05;;;;;;;17.00;100.00;99313.25;4234137;83;28535;-83
2021/09/09 22:32:49;;;;;;;24.90;12.78;;;;;;;17.36;100.00;99313.07;4251553;84;28508;-83
2021/09/09 22:38:51;;;;;;;20.97;12.63;;;;;;;17.03;100.00;99315.98;4251067;84;28555;-83
2021/09/09 22:44:52;;;;;;;20.77;12.90;;;;;;;16.85;100.00;99310.47;4251759;84;28520;-82
2021/09/09 22:50:53;;;;;;;18.98;12.58;;;;;;;16.86;100.00;99302.59;4238144;84;28570;-83
2021/09/09 22:56:55;;;;;;;24.43;14.68;;;;;;;16.68;100.00;99301.97;4265170;83;28495;-84
2021/09/09 23:02:56;;;;;;;21.17;13.15;;;;;;;16.98;100.00;99301.81;4272868;82;28447;-83
2021/09/09 23:08:58;;;;;;;19.67;12.00;;;;;;;16.79;100.00;99303.37;4231954;84;28493;-82
2021/09/09 23:14:59;;;;;;;22.42;12.50;;;;;;;16.55;100.00;99300.55;4267676;83;28464;-83
2021/09/09 23:21:01;;;;;;;21.05;11.95;;;;;;;16.50;100.00;99292.92;4249769;84;28553;-82
2021/09/09 23:27:02;;;;;;;20.52;11.93;;;;;;;16.52;100.00;99305.16;4221737;84;28480;-83
2021/09/09 23:33:04;;;;;;;21.52;13.32;;;;;;;16.49;100.00;99296.73;4256832;83;28482;-82
2021/09/09 23:39:05;;;;;;;20.45;12.50;;;;;;;16.52;100.00;99298.93;4284620;82;28464;-83
2021/09/09 23:45:08;;;;;;;18.95;11.48;;;;;;;16.38;100.00;99302.09;4236044;82;28522;-83
2021/09/09 23:51:09;;;;;;;19.73;11.95;;;;;;;16.05;100.00;99294.59;4151681;84;28524;-84
2021/09/09 23:57:11;;;;;;;19.52;11.53;;;;;;;16.13;100.00;99301.41;4258286;83;28546;-81
